sensor_id;sensor_type;location;lat;lon;timestamp;P1;durP1;ratioP1;P2;durP2;ratioP2
47337;SDS011;33069;51.970;5.892;2023-05-23T00:01:13;19.52;;;11.20;;
47337;SDS011;33069;51.970;5.892;2023-05-23T00:03:41;16.40;;;11.05;;
47337;SDS011;33069;51.970;5.892;2023-05-23T00:06:07;19.23;;;13.18;;
47337;SDS011;33069;51.970;5.892;2023-05-23T00:08:33;22.38;;;14.65;;
47337;SDS011;33069;51.970;5.892;2023-05-23T00:10:58;21.10;;;14.90;;
47337;SDS011;33069;51.970;5.892;2023-05-23T00:13:24;24.88;;;15.80;;
47337;SDS011;33069;51.970;5.892;2023-05-23T00:15:51;20.35;;;12.68;;
47337;SDS011;33069;51.970;5.892;2023-05-23T00:18:16;20.15;;;13.38;;
47337;SDS011;33069;51.970;5.892;2023-05-23T00:20:42;21.02;;;12.82;;
47337;SDS011;33069;51.970;5.892;2023-05-23T00:23:09;23.70;;;12.95;;
47337;SDS011;33069;51.970;5.892;2023-05-23T00:25:42;20.75;;;12.80;;
47337;SDS011;33069;51.970;5.892;2023-05-23T00:28:12;23.10;;;11.63;;
47337;SDS011;33069;51.970;5.892;2023-05-23T00:30:38;23.92;;;15.00;;
47337;SDS011;33069;51.970;5.892;2023-05-23T00:33:04;22.20;;;13.60;;
47337;SDS011;33069;51.970;5.892;2023-05-23T00:35:30;20.83;;;13.48;;
47337;SDS011;33069;51.970;5.892;2023-05-23T00:37:55;20.08;;;13.38;;
47337;SDS011;33069;51.970;5.892;2023-05-23T00:40:21;25.35;;;15.02;;
47337;SDS011;33069;51.970;5.892;2023-05-23T00:42:47;23.45;;;15.48;;
47337;SDS011;33069;51.970;5.892;2023-05-23T00:45:13;25.40;;;16.25;;
47337;SDS011;33069;51.970;5.892;2023-05-23T00:47:40;22.95;;;15.75;;
47337;SDS011;33069;51.970;5.892;2023-05-23T00:50:13;27.90;;;16.92;;
47337;SDS011;33069;51.970;5.892;2023-05-23T00:52:40;24.83;;;16.87;;
47337;SDS011;33069;51.970;5.892;2023-05-23T00:55:07;29.92;;;18.52;;
47337;SDS011;33069;51.970;5.892;2023-05-23T00:57:34;29.15;;;18.02;;
47337;SDS011;33069;51.970;5.892;2023-05-23T01:00:05;38.25;;;19.73;;
47337;SDS011;33069;51.970;5.892;2023-05-23T01:02:38;30.47;;;18.03;;
47337;SDS011;33069;51.970;5.892;2023-05-23T01:05:09;33.20;;;18.95;;
47337;SDS011;33069;51.970;5.892;2023-05-23T01:07:35;38.88;;;34.97;;
47337;SDS011;33069;51.970;5.892;2023-05-23T01:10:02;30.67;;;19.67;;
47337;SDS011;33069;51.970;5.892;2023-05-23T01:12:31;33.17;;;17.50;;
47337;SDS011;33069;51.970;5.892;2023-05-23T01:15:56;30.45;;;18.20;;
47337;SDS011;33069;51.970;5.892;2023-05-23T01:21:06;31.25;;;16.92;;
47337;SDS011;33069;51.970;5.892;2023-05-23T01:26:26;29.15;;;16.88;;
47337;SDS011;33069;51.970;5.892;2023-05-23T01:29:17;26.10;;;15.93;;
47337;SDS011;33069;51.970;5.892;2023-05-23T01:31:53;25.98;;;15.95;;
47337;SDS011;33069;51.970;5.892;2023-05-23T01:37:45;25.83;;;17.27;;
47337;SDS011;33069;51.970;5.892;2023-05-23T01:40:11;25.98;;;15.38;;
47337;SDS011;33069;51.970;5.892;2023-05-23T01:42:37;23.60;;;15.55;;
47337;SDS011;33069;51.970;5.892;2023-05-23T01:45:03;24.20;;;14.35;;
47337;SDS011;33069;51.970;5.892;2023-05-23T01:47:30;20.15;;;12.63;;
47337;SDS011;33069;51.970;5.892;2023-05-23T01:49:56;28.92;;;14.00;;
47337;SDS011;33069;51.970;5.892;2023-05-23T01:52:23;25.38;;;14.30;;
47337;SDS011;33069;51.970;5.892;2023-05-23T01:54:50;24.17;;;13.93;;
47337;SDS011;33069;51.970;5.892;2023-05-23T01:57:16;22.73;;;14.25;;
47337;SDS011;33069;51.970;5.892;2023-05-23T01:59:43;22.63;;;14.20;;
47337;SDS011;33069;51.970;5.892;2023-05-23T02:02:09;22.60;;;14.27;;
47337;SDS011;33069;51.970;5.892;2023-05-23T02:04:35;24.02;;;18.75;;
47337;SDS011;33069;51.970;5.892;2023-05-23T02:07:01;25.17;;;14.02;;
47337;SDS011;33069;51.970;5.892;2023-05-23T02:09:27;31.98;;;15.70;;
47337;SDS011;33069;51.970;5.892;2023-05-23T02:11:52;25.42;;;14.90;;
47337;SDS011;33069;51.970;5.892;2023-05-23T02:14:18;28.52;;;15.32;;
47337;SDS011;33069;51.970;5.892;2023-05-23T02:16:44;25.38;;;15.57;;
47337;SDS011;33069;51.970;5.892;2023-05-23T02:19:10;32.13;;;16.13;;
47337;SDS011;33069;51.970;5.892;2023-05-23T02:21:36;25.20;;;14.80;;
47337;SDS011;33069;51.970;5.892;2023-05-23T02:24:02;25.80;;;14.30;;
47337;SDS011;33069;51.970;5.892;2023-05-23T02:26:28;27.05;;;14.68;;
47337;SDS011;33069;51.970;5.892;2023-05-23T02:28:54;25.25;;;15.65;;
47337;SDS011;33069;51.970;5.892;2023-05-23T02:31:20;25.85;;;14.93;;
47337;SDS011;33069;51.970;5.892;2023-05-23T02:33:46;26.73;;;15.88;;
47337;SDS011;33069;51.970;5.892;2023-05-23T02:36:11;28.40;;;17.85;;
47337;SDS011;33069;51.970;5.892;2023-05-23T02:38:37;25.45;;;14.98;;
47337;SDS011;33069;51.970;5.892;2023-05-23T02:41:03;28.83;;;16.45;;
47337;SDS011;33069;51.970;5.892;2023-05-23T02:43:29;25.90;;;15.25;;
47337;SDS011;33069;51.970;5.892;2023-05-23T02:45:54;26.05;;;15.23;;
47337;SDS011;33069;51.970;5.892;2023-05-23T02:48:20;32.10;;;15.52;;
47337;SDS011;33069;51.970;5.892;2023-05-23T02:50:46;29.75;;;16.40;;
47337;SDS011;33069;51.970;5.892;2023-05-23T02:53:11;29.60;;;17.20;;
47337;SDS011;33069;51.970;5.892;2023-05-23T02:55:37;34.33;;;14.07;;
47337;SDS011;33069;51.970;5.892;2023-05-23T02:58:03;25.70;;;13.90;;
47337;SDS011;33069;51.970;5.892;2023-05-23T03:00:30;25.60;;;14.95;;
47337;SDS011;33069;51.970;5.892;2023-05-23T03:02:56;27.23;;;14.52;;
47337;SDS011;33069;51.970;5.892;2023-05-23T03:05:22;19.90;;;12.40;;
47337;SDS011;33069;51.970;5.892;2023-05-23T03:07:48;25.80;;;12.52;;
47337;SDS011;33069;51.970;5.892;2023-05-23T03:10:16;21.88;;;10.68;;
47337;SDS011;33069;51.970;5.892;2023-05-23T03:12:42;26.70;;;11.40;;
47337;SDS011;33069;51.970;5.892;2023-05-23T03:15:08;20.13;;;11.43;;
47337;SDS011;33069;51.970;5.892;2023-05-23T03:17:34;22.88;;;11.98;;
47337;SDS011;33069;51.970;5.892;2023-05-23T03:20:00;25.60;;;12.77;;
47337;SDS011;33069;51.970;5.892;2023-05-23T03:22:26;21.88;;;13.93;;
47337;SDS011;33069;51.970;5.892;2023-05-23T03:24:51;17.20;;;13.77;;
47337;SDS011;33069;51.970;5.892;2023-05-23T03:27:17;22.88;;;11.30;;
47337;SDS011;33069;51.970;5.892;2023-05-23T03:29:43;21.00;;;10.75;;
47337;SDS011;33069;51.970;5.892;2023-05-23T03:32:08;18.80;;;12.70;;
47337;SDS011;33069;51.970;5.892;2023-05-23T03:34:34;16.80;;;9.07;;
47337;SDS011;33069;51.970;5.892;2023-05-23T03:37:00;15.15;;;8.88;;
47337;SDS011;33069;51.970;5.892;2023-05-23T03:39:26;16.95;;;9.05;;
47337;SDS011;33069;51.970;5.892;2023-05-23T03:41:52;14.27;;;8.15;;
47337;SDS011;33069;51.970;5.892;2023-05-23T03:44:18;15.27;;;7.90;;
47337;SDS011;33069;51.970;5.892;2023-05-23T03:46:43;17.13;;;8.77;;
47337;SDS011;33069;51.970;5.892;2023-05-23T03:49:09;19.90;;;13.13;;
47337;SDS011;33069;51.970;5.892;2023-05-23T03:51:35;16.27;;;8.93;;
47337;SDS011;33069;51.970;5.892;2023-05-23T03:54:01;19.98;;;10.55;;
47337;SDS011;33069;51.970;5.892;2023-05-23T03:56:26;16.25;;;9.48;;
47337;SDS011;33069;51.970;5.892;2023-05-23T03:58:52;17.70;;;10.27;;
47337;SDS011;33069;51.970;5.892;2023-05-23T04:01:18;16.60;;;9.00;;
47337;SDS011;33069;51.970;5.892;2023-05-23T04:03:43;17.92;;;9.55;;
47337;SDS011;33069;51.970;5.892;2023-05-23T04:06:10;13.45;;;9.23;;
47337;SDS011;33069;51.970;5.892;2023-05-23T04:08:36;23.45;;;18.23;;
47337;SDS011;33069;51.970;5.892;2023-05-23T04:11:01;18.35;;;9.85;;
47337;SDS011;33069;51.970;5.892;2023-05-23T04:13:27;17.48;;;10.18;;
47337;SDS011;33069;51.970;5.892;2023-05-23T04:15:55;24.63;;;11.52;;
47337;SDS011;33069;51.970;5.892;2023-05-23T04:18:21;16.38;;;9.75;;
47337;SDS011;33069;51.970;5.892;2023-05-23T04:20:47;21.60;;;9.82;;
47337;SDS011;33069;51.970;5.892;2023-05-23T04:23:13;20.48;;;10.60;;
47337;SDS011;33069;51.970;5.892;2023-05-23T04:25:39;26.30;;;10.25;;
47337;SDS011;33069;51.970;5.892;2023-05-23T04:28:05;18.90;;;9.48;;
47337;SDS011;33069;51.970;5.892;2023-05-23T04:30:31;21.05;;;10.07;;
47337;SDS011;33069;51.970;5.892;2023-05-23T04:32:57;21.42;;;10.18;;
47337;SDS011;33069;51.970;5.892;2023-05-23T04:35:24;23.27;;;9.80;;
47337;SDS011;33069;51.970;5.892;2023-05-23T04:37:53;16.13;;;9.07;;
47337;SDS011;33069;51.970;5.892;2023-05-23T04:40:23;23.15;;;10.25;;
47337;SDS011;33069;51.970;5.892;2023-05-23T04:42:49;19.90;;;9.93;;
47337;SDS011;33069;51.970;5.892;2023-05-23T04:45:16;23.73;;;9.13;;
47337;SDS011;33069;51.970;5.892;2023-05-23T04:47:43;23.75;;;10.85;;
47337;SDS011;33069;51.970;5.892;2023-05-23T04:50:12;18.60;;;9.52;;
47337;SDS011;33069;51.970;5.892;2023-05-23T04:52:42;22.20;;;10.13;;
47337;SDS011;33069;51.970;5.892;2023-05-23T04:55:08;16.15;;;9.05;;
47337;SDS011;33069;51.970;5.892;2023-05-23T04:57:34;28.00;;;11.40;;
47337;SDS011;33069;51.970;5.892;2023-05-23T05:00:00;24.75;;;11.20;;
47337;SDS011;33069;51.970;5.892;2023-05-23T05:02:26;25.48;;;11.55;;
47337;SDS011;33069;51.970;5.892;2023-05-23T05:04:52;37.85;;;12.98;;
47337;SDS011;33069;51.970;5.892;2023-05-23T05:07:17;22.55;;;10.80;;
47337;SDS011;33069;51.970;5.892;2023-05-23T05:09:43;38.53;;;13.38;;
47337;SDS011;33069;51.970;5.892;2023-05-23T05:12:09;26.75;;;11.68;;
47337;SDS011;33069;51.970;5.892;2023-05-23T05:14:35;30.15;;;12.30;;
47337;SDS011;33069;51.970;5.892;2023-05-23T05:17:01;27.42;;;10.73;;
47337;SDS011;33069;51.970;5.892;2023-05-23T05:19:28;22.90;;;11.45;;
47337;SDS011;33069;51.970;5.892;2023-05-23T05:21:53;23.08;;;11.73;;
47337;SDS011;33069;51.970;5.892;2023-05-23T05:24:19;25.75;;;10.90;;
47337;SDS011;33069;51.970;5.892;2023-05-23T05:26:46;24.52;;;11.38;;
47337;SDS011;33069;51.970;5.892;2023-05-23T05:29:12;29.58;;;12.90;;
47337;SDS011;33069;51.970;5.892;2023-05-23T05:31:38;26.00;;;11.35;;
47337;SDS011;33069;51.970;5.892;2023-05-23T05:34:04;26.60;;;11.48;;
47337;SDS011;33069;51.970;5.892;2023-05-23T05:36:30;29.85;;;11.10;;
47337;SDS011;33069;51.970;5.892;2023-05-23T05:38:56;27.50;;;14.13;;
47337;SDS011;33069;51.970;5.892;2023-05-23T05:44:44;27.25;;;10.00;;
47337;SDS011;33069;51.970;5.892;2023-05-23T05:47:10;29.30;;;11.10;;
47337;SDS011;33069;51.970;5.892;2023-05-23T05:49:37;26.08;;;11.02;;
47337;SDS011;33069;51.970;5.892;2023-05-23T05:52:03;27.38;;;11.10;;
47337;SDS011;33069;51.970;5.892;2023-05-23T05:54:30;25.67;;;12.18;;
47337;SDS011;33069;51.970;5.892;2023-05-23T05:56:56;29.15;;;10.90;;
47337;SDS011;33069;51.970;5.892;2023-05-23T05:59:22;27.38;;;8.98;;
47337;SDS011;33069;51.970;5.892;2023-05-23T06:01:48;29.05;;;10.82;;
47337;SDS011;33069;51.970;5.892;2023-05-23T06:04:15;24.65;;;14.85;;
47337;SDS011;33069;51.970;5.892;2023-05-23T06:06:41;21.30;;;8.70;;
47337;SDS011;33069;51.970;5.892;2023-05-23T06:09:07;19.00;;;8.95;;
47337;SDS011;33069;51.970;5.892;2023-05-23T06:11:33;22.10;;;9.20;;
47337;SDS011;33069;51.970;5.892;2023-05-23T06:14:01;18.77;;;9.40;;
47337;SDS011;33069;51.970;5.892;2023-05-23T06:16:27;18.50;;;7.70;;
47337;SDS011;33069;51.970;5.892;2023-05-23T06:18:53;20.77;;;10.95;;
47337;SDS011;33069;51.970;5.892;2023-05-23T06:21:19;22.02;;;9.10;;
47337;SDS011;33069;51.970;5.892;2023-05-23T06:23:45;41.63;;;27.98;;
47337;SDS011;33069;51.970;5.892;2023-05-23T06:26:10;21.42;;;9.70;;
47337;SDS011;33069;51.970;5.892;2023-05-23T06:28:39;23.92;;;9.02;;
47337;SDS011;33069;51.970;5.892;2023-05-23T06:31:05;21.88;;;9.00;;
47337;SDS011;33069;51.970;5.892;2023-05-23T06:33:31;23.58;;;9.85;;
47337;SDS011;33069;51.970;5.892;2023-05-23T06:35:57;33.80;;;10.68;;
47337;SDS011;33069;51.970;5.892;2023-05-23T06:38:25;20.67;;;8.90;;
47337;SDS011;33069;51.970;5.892;2023-05-23T06:40:51;25.70;;;9.70;;
47337;SDS011;33069;51.970;5.892;2023-05-23T06:43:17;25.80;;;8.90;;
47337;SDS011;33069;51.970;5.892;2023-05-23T06:45:44;18.73;;;10.27;;
47337;SDS011;33069;51.970;5.892;2023-05-23T06:48:11;22.65;;;7.78;;
47337;SDS011;33069;51.970;5.892;2023-05-23T06:50:37;17.67;;;7.88;;
47337;SDS011;33069;51.970;5.892;2023-05-23T06:53:03;20.55;;;7.88;;
47337;SDS011;33069;51.970;5.892;2023-05-23T06:55:28;18.65;;;7.97;;
47337;SDS011;33069;51.970;5.892;2023-05-23T06:57:54;16.88;;;10.45;;
47337;SDS011;33069;51.970;5.892;2023-05-23T07:00:20;20.42;;;7.32;;
47337;SDS011;33069;51.970;5.892;2023-05-23T07:02:46;20.00;;;7.72;;
47337;SDS011;33069;51.970;5.892;2023-05-23T07:05:12;20.25;;;7.68;;
47337;SDS011;33069;51.970;5.892;2023-05-23T07:07:39;18.25;;;7.03;;
47337;SDS011;33069;51.970;5.892;2023-05-23T07:10:05;18.13;;;7.80;;
47337;SDS011;33069;51.970;5.892;2023-05-23T07:12:31;15.25;;;7.65;;
47337;SDS011;33069;51.970;5.892;2023-05-23T07:14:57;15.10;;;7.40;;
47337;SDS011;33069;51.970;5.892;2023-05-23T07:17:23;17.33;;;8.70;;
47337;SDS011;33069;51.970;5.892;2023-05-23T07:19:48;18.90;;;8.55;;
47337;SDS011;33069;51.970;5.892;2023-05-23T07:22:14;15.43;;;8.00;;
47337;SDS011;33069;51.970;5.892;2023-05-23T07:24:40;17.35;;;9.60;;
47337;SDS011;33069;51.970;5.892;2023-05-23T07:27:05;18.75;;;9.25;;
47337;SDS011;33069;51.970;5.892;2023-05-23T07:29:31;19.52;;;8.40;;
47337;SDS011;33069;51.970;5.892;2023-05-23T07:31:57;16.05;;;10.43;;
47337;SDS011;33069;51.970;5.892;2023-05-23T07:34:23;13.65;;;7.43;;
47337;SDS011;33069;51.970;5.892;2023-05-23T07:36:51;20.10;;;8.80;;
47337;SDS011;33069;51.970;5.892;2023-05-23T07:39:17;18.60;;;7.78;;
47337;SDS011;33069;51.970;5.892;2023-05-23T07:41:46;16.88;;;10.02;;
47337;SDS011;33069;51.970;5.892;2023-05-23T07:44:13;19.25;;;10.55;;
47337;SDS011;33069;51.970;5.892;2023-05-23T07:46:38;15.23;;;8.05;;
47337;SDS011;33069;51.970;5.892;2023-05-23T07:49:05;19.27;;;7.75;;
47337;SDS011;33069;51.970;5.892;2023-05-23T07:51:31;15.82;;;8.00;;
47337;SDS011;33069;51.970;5.892;2023-05-23T07:53:57;15.85;;;9.15;;
47337;SDS011;33069;51.970;5.892;2023-05-23T07:56:22;22.25;;;20.25;;
47337;SDS011;33069;51.970;5.892;2023-05-23T07:58:48;18.83;;;8.57;;
47337;SDS011;33069;51.970;5.892;2023-05-23T08:01:14;13.63;;;6.97;;
47337;SDS011;33069;51.970;5.892;2023-05-23T08:03:39;13.57;;;8.00;;
47337;SDS011;33069;51.970;5.892;2023-05-23T08:06:05;18.60;;;7.20;;
47337;SDS011;33069;51.970;5.892;2023-05-23T08:08:31;14.52;;;9.07;;
47337;SDS011;33069;51.970;5.892;2023-05-23T08:10:57;13.98;;;6.22;;
47337;SDS011;33069;51.970;5.892;2023-05-23T08:13:23;18.23;;;6.90;;
47337;SDS011;33069;51.970;5.892;2023-05-23T08:15:49;12.13;;;5.13;;
47337;SDS011;33069;51.970;5.892;2023-05-23T08:18:14;18.30;;;5.93;;
47337;SDS011;33069;51.970;5.892;2023-05-23T08:20:40;12.38;;;4.80;;
47337;SDS011;33069;51.970;5.892;2023-05-23T08:23:06;14.88;;;11.00;;
47337;SDS011;33069;51.970;5.892;2023-05-23T08:25:32;11.98;;;5.40;;
47337;SDS011;33069;51.970;5.892;2023-05-23T08:27:58;13.90;;;5.75;;
47337;SDS011;33069;51.970;5.892;2023-05-23T08:30:25;11.55;;;4.97;;
47337;SDS011;33069;51.970;5.892;2023-05-23T08:32:52;10.95;;;4.88;;
47337;SDS011;33069;51.970;5.892;2023-05-23T08:35:19;14.48;;;5.20;;
47337;SDS011;33069;51.970;5.892;2023-05-23T08:37:45;14.20;;;5.25;;
47337;SDS011;33069;51.970;5.892;2023-05-23T08:40:18;14.88;;;4.82;;
47337;SDS011;33069;51.970;5.892;2023-05-23T08:42:46;15.95;;;5.78;;
47337;SDS011;33069;51.970;5.892;2023-05-23T08:45:12;15.40;;;4.95;;
47337;SDS011;33069;51.970;5.892;2023-05-23T08:47:40;18.10;;;5.70;;
47337;SDS011;33069;51.970;5.892;2023-05-23T08:50:11;19.10;;;6.38;;
47337;SDS011;33069;51.970;5.892;2023-05-23T08:52:42;12.48;;;5.07;;
47337;SDS011;33069;51.970;5.892;2023-05-23T08:55:19;17.20;;;5.93;;
47337;SDS011;33069;51.970;5.892;2023-05-23T08:57:47;21.92;;;7.72;;
47337;SDS011;33069;51.970;5.892;2023-05-23T09:00:13;19.13;;;7.57;;
47337;SDS011;33069;51.970;5.892;2023-05-23T09:02:43;20.70;;;6.80;;
47337;SDS011;33069;51.970;5.892;2023-05-23T09:05:10;16.85;;;6.78;;
47337;SDS011;33069;51.970;5.892;2023-05-23T09:07:36;18.75;;;9.40;;
47337;SDS011;33069;51.970;5.892;2023-05-23T09:10:04;16.65;;;6.40;;
47337;SDS011;33069;51.970;5.892;2023-05-23T09:12:31;16.50;;;6.97;;
47337;SDS011;33069;51.970;5.892;2023-05-23T09:14:58;23.75;;;8.27;;
47337;SDS011;33069;51.970;5.892;2023-05-23T09:17:23;20.08;;;14.50;;
47337;SDS011;33069;51.970;5.892;2023-05-23T09:19:49;19.23;;;8.95;;
47337;SDS011;33069;51.970;5.892;2023-05-23T09:22:15;24.88;;;6.93;;
47337;SDS011;33069;51.970;5.892;2023-05-23T09:24:49;15.48;;;6.18;;
47337;SDS011;33069;51.970;5.892;2023-05-23T09:27:16;18.38;;;6.35;;
47337;SDS011;33069;51.970;5.892;2023-05-23T09:29:41;19.98;;;8.30;;
47337;SDS011;33069;51.970;5.892;2023-05-23T09:32:14;19.35;;;11.82;;
47337;SDS011;33069;51.970;5.892;2023-05-23T09:34:54;17.88;;;6.63;;
47337;SDS011;33069;51.970;5.892;2023-05-23T09:37:21;19.27;;;6.35;;
47337;SDS011;33069;51.970;5.892;2023-05-23T09:39:54;21.80;;;7.63;;
47337;SDS011;33069;51.970;5.892;2023-05-23T09:42:20;19.98;;;7.30;;
47337;SDS011;33069;51.970;5.892;2023-05-23T09:44:49;21.63;;;7.30;;
47337;SDS011;33069;51.970;5.892;2023-05-23T09:47:15;22.50;;;6.88;;
47337;SDS011;33069;51.970;5.892;2023-05-23T09:49:45;18.48;;;6.22;;
47337;SDS011;33069;51.970;5.892;2023-05-23T09:52:11;20.15;;;6.78;;
47337;SDS011;33069;51.970;5.892;2023-05-23T09:54:37;15.18;;;7.10;;
47337;SDS011;33069;51.970;5.892;2023-05-23T09:57:05;27.17;;;7.75;;
47337;SDS011;33069;51.970;5.892;2023-05-23T09:59:36;19.35;;;7.70;;
47337;SDS011;33069;51.970;5.892;2023-05-23T10:02:05;18.50;;;7.03;;
47337;SDS011;33069;51.970;5.892;2023-05-23T10:04:35;19.65;;;6.60;;
47337;SDS011;33069;51.970;5.892;2023-05-23T10:09:38;22.02;;;9.63;;
47337;SDS011;33069;51.970;5.892;2023-05-23T10:14:57;23.23;;;9.00;;
47337;SDS011;33069;51.970;5.892;2023-05-23T10:17:30;26.70;;;14.27;;
47337;SDS011;33069;51.970;5.892;2023-05-23T10:20:03;19.30;;;6.80;;
47337;SDS011;33069;51.970;5.892;2023-05-23T10:22:36;15.43;;;7.95;;
47337;SDS011;33069;51.970;5.892;2023-05-23T10:25:03;19.33;;;7.65;;
47337;SDS011;33069;51.970;5.892;2023-05-23T10:27:30;14.70;;;7.90;;
47337;SDS011;33069;51.970;5.892;2023-05-23T10:29:57;21.00;;;6.20;;
47337;SDS011;33069;51.970;5.892;2023-05-23T10:32:25;17.88;;;6.13;;
47337;SDS011;33069;51.970;5.892;2023-05-23T10:35:00;18.58;;;6.53;;
47337;SDS011;33069;51.970;5.892;2023-05-23T10:40:42;19.60;;;7.28;;
47337;SDS011;33069;51.970;5.892;2023-05-23T10:43:29;14.50;;;6.47;;
47337;SDS011;33069;51.970;5.892;2023-05-23T10:46:00;20.23;;;6.28;;
47337;SDS011;33069;51.970;5.892;2023-05-23T10:48:33;18.40;;;6.20;;
47337;SDS011;33069;51.970;5.892;2023-05-23T10:51:08;17.85;;;8.73;;
47337;SDS011;33069;51.970;5.892;2023-05-23T10:53:35;19.77;;;8.27;;
47337;SDS011;33069;51.970;5.892;2023-05-23T10:56:08;21.00;;;6.75;;
47337;SDS011;33069;51.970;5.892;2023-05-23T10:58:36;16.37;;;7.27;;
47337;SDS011;33069;51.970;5.892;2023-05-23T11:09:18;16.73;;;5.50;;
47337;SDS011;33069;51.970;5.892;2023-05-23T11:19:36;17.23;;;5.88;;
47337;SDS011;33069;51.970;5.892;2023-05-23T11:22:20;15.43;;;6.50;;
47337;SDS011;33069;51.970;5.892;2023-05-23T11:24:54;15.68;;;5.65;;
47337;SDS011;33069;51.970;5.892;2023-05-23T11:27:28;17.75;;;5.50;;
47337;SDS011;33069;51.970;5.892;2023-05-23T11:32:40;19.83;;;5.80;;
47337;SDS011;33069;51.970;5.892;2023-05-23T11:35:09;13.88;;;6.05;;
47337;SDS011;33069;51.970;5.892;2023-05-23T11:37:39;16.35;;;5.75;;
47337;SDS011;33069;51.970;5.892;2023-05-23T11:43:06;18.35;;;8.52;;
47337;SDS011;33069;51.970;5.892;2023-05-23T11:45:38;17.25;;;10.57;;
47337;SDS011;33069;51.970;5.892;2023-05-23T11:48:08;18.55;;;5.65;;
47337;SDS011;33069;51.970;5.892;2023-05-23T11:53:11;13.10;;;5.43;;
47337;SDS011;33069;51.970;5.892;2023-05-23T11:55:38;18.40;;;5.70;;
47337;SDS011;33069;51.970;5.892;2023-05-23T11:58:05;18.50;;;6.22;;
47337;SDS011;33069;51.970;5.892;2023-05-23T12:00:31;18.60;;;6.40;;
47337;SDS011;33069;51.970;5.892;2023-05-23T12:02:57;23.08;;;6.45;;
47337;SDS011;33069;51.970;5.892;2023-05-23T12:05:30;14.75;;;5.50;;
47337;SDS011;33069;51.970;5.892;2023-05-23T12:07:58;16.02;;;5.53;;
47337;SDS011;33069;51.970;5.892;2023-05-23T12:10:25;20.20;;;5.47;;
47337;SDS011;33069;51.970;5.892;2023-05-23T12:12:52;21.77;;;6.28;;
47337;SDS011;33069;51.970;5.892;2023-05-23T12:15:18;19.35;;;5.88;;
47337;SDS011;33069;51.970;5.892;2023-05-23T12:17:52;13.50;;;5.53;;
47337;SDS011;33069;51.970;5.892;2023-05-23T12:20:19;13.00;;;5.80;;
47337;SDS011;33069;51.970;5.892;2023-05-23T12:22:45;18.33;;;5.57;;
47337;SDS011;33069;51.970;5.892;2023-05-23T12:25:11;13.40;;;5.63;;
47337;SDS011;33069;51.970;5.892;2023-05-23T12:27:39;14.98;;;5.63;;
47337;SDS011;33069;51.970;5.892;2023-05-23T12:30:10;15.80;;;5.78;;
47337;SDS011;33069;51.970;5.892;2023-05-23T12:32:38;13.20;;;4.93;;
47337;SDS011;33069;51.970;5.892;2023-05-23T12:35:05;15.68;;;5.85;;
47337;SDS011;33069;51.970;5.892;2023-05-23T12:37:32;12.77;;;3.90;;
47337;SDS011;33069;51.970;5.892;2023-05-23T12:40:08;16.55;;;4.53;;
47337;SDS011;33069;51.970;5.892;2023-05-23T12:43:09;16.92;;;5.85;;
47337;SDS011;33069;51.970;5.892;2023-05-23T12:45:33;13.93;;;5.45;;
47337;SDS011;33069;51.970;5.892;2023-05-23T12:48:06;12.32;;;5.63;;
47337;SDS011;33069;51.970;5.892;2023-05-23T12:50:33;12.50;;;5.50;;
47337;SDS011;33069;51.970;5.892;2023-05-23T12:52:59;18.08;;;4.90;;
47337;SDS011;33069;51.970;5.892;2023-05-23T12:55:24;12.27;;;5.25;;
47337;SDS011;33069;51.970;5.892;2023-05-23T12:57:50;14.23;;;5.47;;
47337;SDS011;33069;51.970;5.892;2023-05-23T13:00:16;17.23;;;5.10;;
47337;SDS011;33069;51.970;5.892;2023-05-23T13:02:43;14.98;;;4.68;;
47337;SDS011;33069;51.970;5.892;2023-05-23T13:05:09;16.33;;;5.43;;
47337;SDS011;33069;51.970;5.892;2023-05-23T13:07:35;16.13;;;5.13;;
47337;SDS011;33069;51.970;5.892;2023-05-23T13:10:02;15.45;;;5.13;;
47337;SDS011;33069;51.970;5.892;2023-05-23T13:12:28;16.85;;;4.38;;
47337;SDS011;33069;51.970;5.892;2023-05-23T13:14:55;12.23;;;6.00;;
47337;SDS011;33069;51.970;5.892;2023-05-23T13:17:21;19.02;;;5.05;;
47337;SDS011;33069;51.970;5.892;2023-05-23T13:19:47;11.98;;;4.80;;
47337;SDS011;33069;51.970;5.892;2023-05-23T13:22:13;16.98;;;6.40;;
47337;SDS011;33069;51.970;5.892;2023-05-23T13:24:39;14.20;;;5.65;;
47337;SDS011;33069;51.970;5.892;2023-05-23T13:27:07;13.27;;;4.57;;
47337;SDS011;33069;51.970;5.892;2023-05-23T13:29:33;10.52;;;4.70;;
47337;SDS011;33069;51.970;5.892;2023-05-23T13:31:59;14.43;;;5.40;;
47337;SDS011;33069;51.970;5.892;2023-05-23T13:34:25;14.82;;;5.15;;
47337;SDS011;33069;51.970;5.892;2023-05-23T13:36:52;14.32;;;5.60;;
47337;SDS011;33069;51.970;5.892;2023-05-23T13:39:18;13.55;;;5.30;;
47337;SDS011;33069;51.970;5.892;2023-05-23T13:41:47;15.40;;;6.50;;
47337;SDS011;33069;51.970;5.892;2023-05-23T13:44:15;16.05;;;5.35;;
47337;SDS011;33069;51.970;5.892;2023-05-23T13:46:42;15.43;;;5.28;;
47337;SDS011;33069;51.970;5.892;2023-05-23T13:49:08;18.73;;;5.20;;
47337;SDS011;33069;51.970;5.892;2023-05-23T13:51:34;14.02;;;5.32;;
47337;SDS011;33069;51.970;5.892;2023-05-23T13:54:01;22.90;;;8.70;;
47337;SDS011;33069;51.970;5.892;2023-05-23T13:56:30;15.38;;;5.90;;
47337;SDS011;33069;51.970;5.892;2023-05-23T13:58:56;13.65;;;5.25;;
47337;SDS011;33069;51.970;5.892;2023-05-23T14:01:22;12.13;;;5.18;;
47337;SDS011;33069;51.970;5.892;2023-05-23T14:03:48;15.82;;;6.75;;
47337;SDS011;33069;51.970;5.892;2023-05-23T14:06:14;17.73;;;6.40;;
47337;SDS011;33069;51.970;5.892;2023-05-23T14:08:40;22.80;;;6.80;;
47337;SDS011;33069;51.970;5.892;2023-05-23T14:11:06;15.60;;;6.00;;
47337;SDS011;33069;51.970;5.892;2023-05-23T14:13:32;17.88;;;5.53;;
47337;SDS011;33069;51.970;5.892;2023-05-23T14:15:58;13.57;;;5.40;;
47337;SDS011;33069;51.970;5.892;2023-05-23T14:18:24;14.30;;;5.28;;
47337;SDS011;33069;51.970;5.892;2023-05-23T14:20:50;19.08;;;5.43;;
47337;SDS011;33069;51.970;5.892;2023-05-23T14:23:16;14.20;;;5.22;;
47337;SDS011;33069;51.970;5.892;2023-05-23T14:25:42;21.40;;;5.97;;
47337;SDS011;33069;51.970;5.892;2023-05-23T14:28:07;13.40;;;5.30;;
47337;SDS011;33069;51.970;5.892;2023-05-23T14:30:33;15.85;;;5.97;;
47337;SDS011;33069;51.970;5.892;2023-05-23T14:32:59;19.00;;;5.22;;
47337;SDS011;33069;51.970;5.892;2023-05-23T14:35:25;23.33;;;6.50;;
47337;SDS011;33069;51.970;5.892;2023-05-23T14:37:50;21.88;;;5.97;;
47337;SDS011;33069;51.970;5.892;2023-05-23T14:40:16;24.75;;;6.18;;
47337;SDS011;33069;51.970;5.892;2023-05-23T14:42:42;18.95;;;6.75;;
47337;SDS011;33069;51.970;5.892;2023-05-23T14:45:08;16.13;;;5.93;;
47337;SDS011;33069;51.970;5.892;2023-05-23T14:47:34;15.45;;;6.18;;
47337;SDS011;33069;51.970;5.892;2023-05-23T14:50:01;16.90;;;6.03;;
47337;SDS011;33069;51.970;5.892;2023-05-23T14:52:27;13.27;;;5.40;;
47337;SDS011;33069;51.970;5.892;2023-05-23T14:54:53;17.63;;;6.05;;
47337;SDS011;33069;51.970;5.892;2023-05-23T14:57:18;19.02;;;5.25;;
47337;SDS011;33069;51.970;5.892;2023-05-23T14:59:44;13.98;;;5.95;;
47337;SDS011;33069;51.970;5.892;2023-05-23T15:02:10;13.32;;;6.45;;
47337;SDS011;33069;51.970;5.892;2023-05-23T15:04:36;17.10;;;6.70;;
47337;SDS011;33069;51.970;5.892;2023-05-23T15:07:02;13.95;;;5.72;;
47337;SDS011;33069;51.970;5.892;2023-05-23T15:09:28;15.45;;;7.03;;
47337;SDS011;33069;51.970;5.892;2023-05-23T15:11:55;15.18;;;5.25;;
47337;SDS011;33069;51.970;5.892;2023-05-23T15:14:21;15.45;;;5.68;;